< < Back
Terminal Aerodrome Forecast


Current Version              Previous Versions:   1  2  3  4  5  6  7  8  9  

Terminal Aerodrome Forecast

274
FTUS44 KBMX 191139
TAFANB
TAF
KANB 191139Z 1912/2012 20007KT P6SM -RA SCT020 OVC050
     FM191300 20007KT P6SM BKN012 OVC025
      TEMPO 1913/1915 22010G20KT 1SM +TSRA BKN009CB OVC015
     FM191600 22009KT P6SM OVC015
     FM191800 23009KT P6SM BKN035=

Latest METAR

863
SAUS70 KWBC 191500 RRG
MTRANB
METAR KANB 191453Z AUTO 00000KT 10SM FEW022 BKN034 OVC046 19/17 A2979
RMK AO2 RAE33 SLP083 P0012 60031 T01890172 53001


USA.gov is the U.S. government's official web portal to all federal, state and local government web resources and services.